Time;durP1;ratioP1;P1;durP2;ratioP2;P2;SDS_P1;SDS_P2;PMS_P1;PMS_P2;Temp;Humidity;BMP_temperature;BMP_pressure;BME280_temperature;BME280_humidity;BME280_pressure;Samples;Min_cycle;Max_cycle;Signal;HPM_P1;HPM_P2
2022/05/02 00:00:34;;;;;;;3.65;2.10;;;22.60;47.80;;;;;;5070943;28;20473;-73
2022/05/02 00:02:59;;;;;;;3.72;1.80;;;22.60;47.70;;;;;;5070726;28;20442;-73
2022/05/02 00:05:27;;;;;;;2.70;2.00;;;22.60;47.80;;;;;;5070770;28;20036;-73
2022/05/02 00:07:52;;;;;;;3.42;2.10;;;22.60;47.70;;;;;;5070929;28;20072;-73
2022/05/02 00:10:18;;;;;;;2.97;2.05;;;22.60;47.80;;;;;;5070984;28;20051;-73
2022/05/02 00:12:44;;;;;;;2.90;1.92;;;22.60;47.90;;;;;;5070818;28;20389;-73
2022/05/02 00:15:11;;;;;;;4.10;2.00;;;22.60;47.70;;;;;;5070826;28;20066;-72
2022/05/02 00:20:30;;;;;;;4.60;2.20;;;22.60;47.80;;;;;;5070744;28;20044;-73
2022/05/02 00:22:57;;;;;;;3.10;2.08;;;22.60;47.80;;;;;;5069496;28;20400;-73
2022/05/02 00:25:23;;;;;;;2.80;1.85;;;22.60;47.90;;;;;;5070688;28;20024;-72
2022/05/02 00:27:49;;;;;;;3.70;1.90;;;22.60;47.80;;;;;;5070785;28;20473;-73
2022/05/02 00:30:15;;;;;;;3.10;1.98;;;22.60;47.80;;;;;;5070683;28;20024;-72
2022/05/02 00:32:42;;;;;;;3.00;1.60;;;22.60;47.80;;;;;;5070491;28;20502;-72
2022/05/02 00:35:09;;;;;;;3.08;2.08;;;22.60;47.80;;;;;;5070870;28;20439;-73
2022/05/02 00:37:36;;;;;;;3.65;1.90;;;22.60;47.70;;;;;;5036729;28;20040;-73
2022/05/02 00:40:03;;;;;;;3.22;2.00;;;22.60;47.70;;;;;;5070832;28;20429;-73
2022/05/02 00:42:29;;;;;;;3.00;1.90;;;22.60;47.70;;;;;;5070562;28;20090;-73
2022/05/02 00:44:54;;;;;;;3.90;1.75;;;22.60;47.70;;;;;;5068983;28;20311;-73
2022/05/02 00:47:20;;;;;;;3.78;2.10;;;22.60;47.70;;;;;;5069412;28;20389;-72
2022/05/02 00:49:48;;;;;;;2.80;1.90;;;22.60;47.70;;;;;;5070848;28;20369;-73
2022/05/02 00:52:14;;;;;;;2.83;1.90;;;22.60;47.70;;;;;;5073993;28;20027;-72
2022/05/02 00:54:42;;;;;;;2.53;1.92;;;22.60;48.30;;;;;;5073628;28;20025;-73
2022/05/02 00:57:09;;;;;;;2.00;1.60;;;22.60;47.70;;;;;;5055981;28;20039;-73
2022/05/02 00:59:39;;;;;;;3.10;1.65;;;22.60;47.70;;;;;;5074379;28;20039;-72
2022/05/02 01:02:06;;;;;;;3.00;2.05;;;22.60;47.70;;;;;;5073168;28;20036;-72
2022/05/02 01:04:32;;;;;;;2.80;1.95;;;22.60;47.70;;;;;;5072606;28;20056;-73
2022/05/02 01:07:10;;;;;;;2.40;1.73;;;22.60;47.80;;;;;;5073959;28;20551;-73
2022/05/02 01:09:38;;;;;;;2.83;1.85;;;22.60;47.70;;;;;;5072981;28;20056;-72
2022/05/02 01:12:14;;;;;;;2.92;1.80;;;22.60;47.70;;;;;;5073770;28;20024;-73
2022/05/02 01:14:41;;;;;;;3.33;2.00;;;22.60;47.70;;;;;;5056091;28;20037;-73
2022/05/02 01:17:07;;;;;;;3.50;1.83;;;22.60;47.70;;;;;;5072859;28;20373;-73
2022/05/02 01:19:34;;;;;;;2.65;1.80;;;22.60;47.70;;;;;;5074339;28;20044;-73
2022/05/02 01:22:00;;;;;;;2.42;1.77;;;22.60;47.70;;;;;;5073775;28;20477;-73
2022/05/02 01:24:34;;;;;;;3.33;1.70;;;22.60;47.70;;;;;;5073560;28;20036;-73
2022/05/02 01:27:01;;;;;;;3.05;1.83;;;22.60;47.70;;;;;;5073559;28;20493;-72
2022/05/02 01:29:26;;;;;;;3.08;1.83;;;22.60;47.70;;;;;;5073833;28;20017;-73
2022/05/02 01:31:54;;;;;;;2.80;1.75;;;22.60;47.70;;;;;;5073641;28;20024;-73
2022/05/02 01:34:20;;;;;;;2.88;1.80;;;22.60;47.70;;;;;;5073218;28;20037;-73
2022/05/02 01:36:46;;;;;;;3.08;1.85;;;22.60;47.70;;;;;;5072212;28;20503;-72
2022/05/02 01:39:12;;;;;;;3.03;1.77;;;22.60;47.70;;;;;;5073660;28;20021;-73
2022/05/02 01:41:37;;;;;;;2.78;1.80;;;22.60;47.70;;;;;;5073353;28;20466;-73
2022/05/02 01:44:03;;;;;;;2.88;1.95;;;22.60;47.70;;;;;;5072073;28;20033;-73
2022/05/02 01:46:29;;;;;;;2.83;1.65;;;22.60;47.70;;;;;;5073389;28;20078;-73
2022/05/02 01:48:56;;;;;;;3.15;1.98;;;22.60;47.70;;;;;;5073399;28;20094;-72
2022/05/02 01:51:22;;;;;;;3.33;1.98;;;22.60;47.60;;;;;;5072040;28;20058;-73
2022/05/02 01:53:48;;;;;;;2.72;1.90;;;22.60;47.70;;;;;;5071947;28;20032;-73
2022/05/02 01:56:13;;;;;;;3.10;1.88;;;22.60;47.70;;;;;;5072000;28;20082;-73
2022/05/02 01:58:39;;;;;;;2.80;1.70;;;22.60;47.60;;;;;;5073338;28;20104;-73
2022/05/02 02:01:05;;;;;;;3.15;1.88;;;22.60;47.70;;;;;;5073209;28;20032;-73
2022/05/02 02:03:30;;;;;;;2.55;1.70;;;22.60;47.70;;;;;;5072356;28;20029;-73
2022/05/02 02:05:58;;;;;;;2.90;1.80;;;22.60;47.60;;;;;;5073052;28;20121;-73
2022/05/02 02:08:25;;;;;;;2.90;1.92;;;22.60;47.70;;;;;;5071483;28;20020;-73
2022/05/02 02:10:54;;;;;;;3.50;1.92;;;22.60;47.60;;;;;;5072927;28;20503;-72
2022/05/02 02:13:20;;;;;;;2.28;1.67;;;22.60;47.70;;;;;;5072630;28;20022;-73
2022/05/02 02:15:46;;;;;;;2.80;1.60;;;22.60;47.60;;;;;;5072800;28;20058;-72
2022/05/02 02:18:13;;;;;;;2.58;1.88;;;22.60;48.30;;;;;;5072678;28;20086;-72
2022/05/02 02:20:42;;;;;;;2.58;1.63;;;22.60;47.70;;;;;;5072955;28;20535;-72
2022/05/02 02:23:08;;;;;;;2.95;1.83;;;22.60;47.70;;;;;;5072224;28;20055;-72
2022/05/02 02:25:36;;;;;;;2.33;1.60;;;22.60;47.60;;;;;;5072660;28;20028;-72
2022/05/02 02:28:01;;;;;;;2.47;1.75;;;22.60;47.70;;;;;;5071626;28;20028;-72
2022/05/02 02:30:29;;;;;;;2.08;1.48;;;22.50;47.80;;;;;;5072805;28;20029;-72
2022/05/02 02:32:56;;;;;;;3.17;1.80;;;22.60;47.80;;;;;;5072010;28;20154;-72
2022/05/02 02:35:22;;;;;;;2.03;1.42;;;22.60;48.00;;;;;;5072401;28;20492;-72
2022/05/02 02:37:48;;;;;;;2.60;1.60;;;22.50;47.90;;;;;;5072094;28;20105;-72
2022/05/02 02:40:15;;;;;;;2.15;1.55;;;22.50;47.70;;;;;;5072302;28;20040;-72
2022/05/02 02:42:41;;;;;;;2.58;1.50;;;22.60;47.70;;;;;;5071204;28;20033;-72
2022/05/02 02:45:07;;;;;;;3.33;1.75;;;22.50;47.90;;;;;;5070690;28;20051;-72
2022/05/02 02:47:33;;;;;;;2.38;1.60;;;22.50;47.90;;;;;;5072276;28;20028;-72
2022/05/02 02:49:59;;;;;;;2.00;1.42;;;22.60;47.90;;;;;;5054173;28;20021;-72
2022/05/02 02:52:24;;;;;;;2.58;1.60;;;22.60;47.90;;;;;;5071875;28;20370;-72
2022/05/02 02:54:50;;;;;;;2.50;1.63;;;22.60;47.60;;;;;;5071931;28;20032;-71
2022/05/02 02:57:16;;;;;;;2.67;1.77;;;22.60;47.80;;;;;;5072481;28;20036;-72
2022/05/02 02:59:43;;;;;;;3.70;1.60;;;22.60;47.80;;;;;;5071996;28;20433;-72
2022/05/02 03:02:09;;;;;;;1.98;1.50;;;22.60;47.70;;;;;;5071845;28;20028;-71
2022/05/02 03:07:20;;;;;;;2.90;1.80;;;22.60;47.70;;;;;;5070574;28;20370;-72
2022/05/02 03:09:46;;;;;;;2.95;1.67;;;22.50;47.50;;;;;;5070675;28;20025;-72
2022/05/02 03:12:12;;;;;;;2.55;1.50;;;22.60;48.00;;;;;;5070596;28;20031;-72
2022/05/02 03:14:38;;;;;;;2.72;1.60;;;22.50;47.70;;;;;;5071212;28;20064;-71
2022/05/02 03:17:04;;;;;;;2.30;1.55;;;22.50;47.60;;;;;;5070421;28;20070;-71
2022/05/02 03:19:30;;;;;;;2.08;1.50;;;22.50;47.90;;;;;;5071581;28;20028;-72
2022/05/02 03:21:56;;;;;;;2.30;1.50;;;22.60;48.00;;;;;;5071625;28;20082;-72
2022/05/02 03:24:21;;;;;;;2.38;1.60;;;22.60;48.00;;;;;;5070989;28;20032;-72
2022/05/02 03:26:47;;;;;;;2.42;1.40;;;22.60;47.90;;;;;;5071605;28;20108;-72
2022/05/02 03:29:13;;;;;;;1.95;1.50;;;22.60;48.00;;;;;;5071751;28;20025;-71
2022/05/02 03:31:39;;;;;;;3.20;1.80;;;22.60;48.00;;;;;;5070336;28;20032;-72
2022/05/02 03:34:04;;;;;;;2.20;1.58;;;22.50;47.70;;;;;;5070932;28;20123;-72
2022/05/02 03:36:30;;;;;;;2.67;1.58;;;22.50;47.90;;;;;;5071443;28;20116;-72
2022/05/02 03:38:56;;;;;;;2.05;1.55;;;22.50;48.00;;;;;;5071074;28;20021;-72
2022/05/02 03:41:21;;;;;;;2.83;1.42;;;22.50;47.90;;;;;;5071674;28;20033;-72
2022/05/02 03:43:47;;;;;;;2.67;1.70;;;22.50;48.00;;;;;;5070630;28;20205;-72
2022/05/02 03:46:13;;;;;;;1.85;1.45;;;22.60;48.10;;;;;;5069937;28;20028;-72
2022/05/02 03:48:39;;;;;;;2.17;1.45;;;22.50;47.90;;;;;;5071286;28;20052;-72
2022/05/02 03:51:05;;;;;;;2.15;1.30;;;22.60;48.00;;;;;;5082753;28;20496;-72
2022/05/02 03:53:30;;;;;;;3.45;1.33;;;22.50;48.00;;;;;;5089754;28;20054;-72
2022/05/02 03:55:56;;;;;;;3.00;1.58;;;22.50;47.70;;;;;;5090996;28;20472;-72
2022/05/02 03:58:22;;;;;;;2.95;1.95;;;22.50;47.80;;;;;;5090995;28;20032;-72
2022/05/02 04:00:48;;;;;;;1.88;1.42;;;22.50;47.80;;;;;;5091846;28;20383;-72
2022/05/02 04:03:14;;;;;;;2.08;1.50;;;22.50;47.90;;;;;;5089501;28;20032;-72
2022/05/02 04:05:40;;;;;;;1.38;1.20;;;22.50;47.90;;;;;;5091097;28;20038;-72
2022/05/02 04:08:06;;;;;;;2.13;1.50;;;22.60;47.70;;;;;;5091165;28;20028;-72
2022/05/02 04:10:32;;;;;;;2.67;1.70;;;22.50;47.60;;;;;;5090023;28;20431;-72
2022/05/02 04:12:57;;;;;;;3.13;1.80;;;22.50;47.60;;;;;;5090774;28;20024;-72
2022/05/02 04:15:23;;;;;;;2.05;1.30;;;22.60;47.90;;;;;;5091090;28;20089;-72
2022/05/02 04:17:49;;;;;;;2.67;1.63;;;22.50;47.90;;;;;;5073100;28;20102;-72
2022/05/02 04:20:14;;;;;;;2.58;1.60;;;22.60;48.00;;;;;;5072986;28;20501;-72
2022/05/02 04:22:40;;;;;;;2.42;1.75;;;22.50;47.80;;;;;;5090992;28;20595;-72
2022/05/02 04:25:07;;;;;;;2.00;1.60;;;22.50;47.80;;;;;;5089173;28;20046;-73
2022/05/02 04:27:33;;;;;;;3.80;1.73;;;22.50;47.60;;;;;;5093751;28;20480;-72
2022/05/02 04:29:59;;;;;;;2.28;1.48;;;22.50;47.80;;;;;;5093837;28;20047;-72
2022/05/02 04:32:25;;;;;;;2.85;1.58;;;22.60;47.80;;;;;;5094779;28;20059;-72
2022/05/02 04:34:54;;;;;;;2.50;1.60;;;22.50;47.90;;;;;;5094739;28;20069;-72
2022/05/02 04:37:19;;;;;;;2.83;1.80;;;22.50;47.70;;;;;;5095013;28;20032;-72
2022/05/02 04:39:45;;;;;;;2.22;1.45;;;22.50;47.80;;;;;;5077041;28;20081;-72
2022/05/02 04:42:11;;;;;;;3.50;1.95;;;22.50;47.90;;;;;;5093697;28;20080;-72
2022/05/02 04:44:36;;;;;;;3.20;1.73;;;22.50;47.70;;;;;;5093209;28;20035;-72
2022/05/02 04:47:03;;;;;;;2.83;1.60;;;22.50;47.80;;;;;;5094846;28;20047;-72
2022/05/02 04:49:28;;;;;;;2.72;1.60;;;22.60;47.90;;;;;;5094709;28;20043;-72
2022/05/02 04:51:54;;;;;;;2.63;1.70;;;22.50;47.60;;;;;;5093674;28;20480;-72
2022/05/02 04:54:20;;;;;;;3.45;1.90;;;22.50;48.00;;;;;;5094054;28;20032;-72
2022/05/02 04:56:45;;;;;;;2.40;1.63;;;22.50;47.60;;;;;;5060036;28;20044;-73
2022/05/02 04:59:11;;;;;;;3.55;1.90;;;22.50;47.90;;;;;;5094195;28;20032;-73
2022/05/02 05:01:37;;;;;;;2.45;1.73;;;22.50;47.90;;;;;;5093610;28;20450;-73
2022/05/02 05:04:02;;;;;;;2.80;1.73;;;22.50;47.70;;;;;;5092585;28;20114;-73
2022/05/02 05:06:28;;;;;;;3.22;1.70;;;22.50;47.80;;;;;;5094644;28;20020;-73
2022/05/02 05:08:54;;;;;;;2.80;1.60;;;22.60;47.70;;;;;;5093312;28;20032;-73
2022/05/02 05:11:46;;;;;;;2.45;1.52;;;22.50;47.90;;;;;;5094348;28;20027;-72
2022/05/02 05:17:59;;;;;;;2.25;1.60;;;22.60;47.80;;;;;;5094080;28;20119;-73
2022/05/02 05:20:35;;;;;;;3.33;1.73;;;22.50;47.80;;;;;;5092911;28;20091;-73
2022/05/02 05:23:01;;;;;;;2.30;1.35;;;22.60;48.00;;;;;;5075738;28;20097;-73
2022/05/02 05:25:42;;;;;;;3.20;1.83;;;22.50;47.80;;;;;;5092703;28;20036;-73
2022/05/02 05:28:18;;;;;;;2.70;1.73;;;22.50;47.60;;;;;;5076527;28;20020;-72
2022/05/02 05:30:46;;;;;;;3.15;1.70;;;22.50;47.80;;;;;;5093973;28;20049;-72
2022/05/02 05:33:25;;;;;;;3.00;1.80;;;22.50;48.30;;;;;;5092220;28;20035;-72
2022/05/02 05:36:02;;;;;;;2.45;1.70;;;22.50;47.70;;;;;;5092800;28;20046;-72
2022/05/02 05:38:45;;;;;;;1.83;1.40;;;22.50;47.80;;;;;;5093340;28;20042;-73
2022/05/02 05:41:55;;;;;;;3.28;1.90;;;22.50;47.80;;;;;;5092568;28;20101;-73
2022/05/02 05:44:32;;;;;;;3.58;1.42;;;22.50;47.90;;;;;;5074042;28;20469;-73
2022/05/02 05:47:40;;;;;;;2.70;1.77;;;22.50;48.50;;;;;;5091283;28;20028;-72
2022/05/02 05:50:29;;;;;;;2.08;1.58;;;22.50;47.90;;;;;;5088705;28;20040;-72
2022/05/02 05:53:04;;;;;;;2.70;1.70;;;22.50;47.80;;;;;;5091919;28;20024;-72
2022/05/02 05:56:09;;;;;;;3.03;1.67;;;22.50;47.90;;;;;;5093110;28;20160;-72
2022/05/02 05:59:02;;;;;;;2.90;1.90;;;22.60;47.90;;;;;;5093385;28;20043;-72
2022/05/02 06:02:06;;;;;;;3.45;1.70;;;22.60;47.90;;;;;;5075308;28;20036;-72
2022/05/02 06:04:36;;;;;;;3.47;1.95;;;22.50;47.60;;;;;;5092001;28;20042;-72
2022/05/02 06:07:02;;;;;;;3.35;2.00;;;22.50;47.70;;;;;;5092947;28;20020;-73
2022/05/02 06:09:30;;;;;;;2.92;1.95;;;22.60;47.80;;;;;;5093160;28;20069;-73
2022/05/02 06:12:00;;;;;;;3.22;1.90;;;22.60;47.60;;;;;;5093306;28;20059;-73
2022/05/02 06:14:32;;;;;;;3.08;1.98;;;22.60;47.50;;;;;;5092694;28;20473;-73
2022/05/02 06:19:46;;;;;;;2.95;2.00;;;22.60;47.40;;;;;;5093417;28;20441;-73
2022/05/02 06:22:12;;;;;;;3.10;1.95;;;22.60;47.30;;;;;;5091766;28;20434;-73
2022/05/02 06:24:44;;;;;;;2.92;1.75;;;22.60;47.40;;;;;;5091187;28;20034;-73
2022/05/02 06:27:11;;;;;;;3.35;2.00;;;22.60;47.40;;;;;;5092968;28;20497;-73
2022/05/02 06:29:40;;;;;;;2.60;2.00;;;22.60;47.30;;;;;;5092955;28;20024;-73
2022/05/02 06:32:10;;;;;;;2.63;1.73;;;22.60;47.40;;;;;;5092927;28;20063;-73
2022/05/02 06:34:37;;;;;;;3.63;2.20;;;22.60;47.30;;;;;;5091407;28;20388;-73
2022/05/02 06:37:55;;;;;;;3.58;1.90;;;22.60;47.40;;;;;;5091286;28;20036;-73
2022/05/02 06:40:36;;;;;;;3.25;1.92;;;22.70;47.40;;;;;;5089621;28;20032;-73
2022/05/02 06:43:25;;;;;;;3.33;1.90;;;22.60;47.30;;;;;;5092424;28;20175;-73
2022/05/02 06:46:03;;;;;;;2.45;1.52;;;22.60;47.30;;;;;;5092313;28;20071;-73
2022/05/02 06:48:46;;;;;;;4.43;2.30;;;22.60;47.40;;;;;;5092078;28;20358;-73
2022/05/02 06:51:21;;;;;;;3.90;1.92;;;22.60;47.40;;;;;;5092436;28;20027;-73
2022/05/02 06:54:17;;;;;;;3.88;2.10;;;22.60;47.50;;;;;;5090823;28;20028;-73
2022/05/02 06:56:46;;;;;;;3.15;2.13;;;22.70;47.60;;;;;;5092331;28;20050;-73
2022/05/02 06:59:27;;;;;;;3.38;2.17;;;22.70;47.60;;;;;;5092407;28;20025;-73
2022/05/02 07:02:08;;;;;;;3.30;2.10;;;22.60;47.70;;;;;;5092465;28;20040;-73
2022/05/02 07:04:54;;;;;;;3.63;1.75;;;22.60;47.70;;;;;;5091820;28;20400;-73
2022/05/02 07:07:58;;;;;;;3.22;1.98;;;22.60;47.90;;;;;;5092180;28;20071;-73
2022/05/02 07:10:49;;;;;;;2.80;2.00;;;22.60;48.00;;;;;;5090907;28;20077;-73
2022/05/02 07:13:38;;;;;;;2.72;1.75;;;22.70;47.90;;;;;;5090569;28;20521;-72
2022/05/02 07:16:23;;;;;;;2.92;1.77;;;22.70;48.00;;;;;;5091949;28;20040;-73
2022/05/02 07:19:05;;;;;;;2.65;1.70;;;22.70;48.00;;;;;;5091908;28;20028;-73
2022/05/02 07:21:41;;;;;;;2.88;1.80;;;22.70;47.80;;;;;;5091829;28;20036;-73
2022/05/02 07:24:30;;;;;;;2.72;1.75;;;22.70;47.80;;;;;;5091485;28;20059;-73
2022/05/02 07:27:24;;;;;;;2.92;1.67;;;22.70;47.90;;;;;;5091912;28;20335;-73
2022/05/02 07:29:50;;;;;;;4.82;2.10;;;22.70;47.80;;;;;;5091673;28;20111;-73
2022/05/02 07:32:21;;;;;;;2.72;1.92;;;22.70;47.80;;;;;;5091748;28;20369;-73
2022/05/02 07:34:49;;;;;;;2.88;2.00;;;22.70;47.90;;;;;;5091221;28;20078;-73
2022/05/02 07:37:19;;;;;;;4.28;2.15;;;22.70;47.90;;;;;;5091656;28;20103;-73
2022/05/02 07:39:47;;;;;;;2.47;1.73;;;22.70;47.80;;;;;;5090434;28;20116;-73
2022/05/02 07:42:14;;;;;;;3.15;1.75;;;22.70;47.90;;;;;;5090399;28;20035;-72
2022/05/02 07:44:43;;;;;;;3.80;2.08;;;22.80;48.00;;;;;;5091199;28;20499;-74
2022/05/02 07:47:11;;;;;;;3.03;2.00;;;22.80;48.00;;;;;;5091562;28;20099;-73
2022/05/02 07:49:39;;;;;;;2.83;1.83;;;22.70;48.10;;;;;;5091489;28;20266;-72
2022/05/02 07:52:08;;;;;;;2.40;1.67;;;22.70;47.90;;;;;;5089924;28;20637;-73
2022/05/02 07:54:41;;;;;;;2.75;1.83;;;22.70;48.00;;;;;;5091189;28;20054;-72
2022/05/02 07:57:08;;;;;;;2.38;1.70;;;22.70;48.00;;;;;;5091243;28;20105;-75
2022/05/02 07:59:39;;;;;;;2.72;1.70;;;22.80;48.10;;;;;;5090115;28;20032;-74
2022/05/02 08:02:05;;;;;;;3.17;2.00;;;22.70;48.00;;;;;;5090102;28;20054;-74
2022/05/02 08:04:32;;;;;;;3.38;1.95;;;22.70;48.00;;;;;;5090855;28;20032;-75
2022/05/02 08:06:57;;;;;;;2.45;1.50;;;22.80;48.00;;;;;;5056833;28;20024;-74
2022/05/02 08:09:51;;;;;;;5.22;2.10;;;22.70;48.10;;;;;;5091537;28;20119;-74
2022/05/02 08:12:54;;;;;;;3.08;1.77;;;22.70;48.00;;;;;;5091332;28;20493;-74
2022/05/02 08:15:32;;;;;;;3.20;1.80;;;22.70;48.10;;;;;;5091154;28;20480;-73
2022/05/02 08:18:13;;;;;;;3.78;1.90;;;22.70;48.00;;;;;;5091207;28;20369;-73
2022/05/02 08:20:57;;;;;;;2.80;1.85;;;22.80;47.90;;;;;;5090290;28;20217;-74
2022/05/02 08:30:01;;;;;;;2.88;1.80;;;22.80;48.10;;;;;;5091272;28;20450;-73
2022/05/02 08:32:48;;;;;;;2.40;1.60;;;22.80;48.10;;;;;;5089776;28;20047;-74
2022/05/02 08:35:44;;;;;;;3.15;1.88;;;22.80;47.90;;;;;;5091182;28;20023;-74
2022/05/02 08:38:29;;;;;;;3.00;1.73;;;22.80;48.10;;;;;;5091540;28;20108;-74
2022/05/02 08:41:33;;;;;;;2.33;1.63;;;22.80;48.10;;;;;;5089862;28;20031;-74
2022/05/02 08:44:32;;;;;;;3.03;1.85;;;22.80;48.00;;;;;;5090558;28;20024;-73
2022/05/02 08:47:13;;;;;;;2.93;1.60;;;22.80;48.10;;;;;;5089639;28;20031;-73
2022/05/02 08:49:55;;;;;;;2.72;1.63;;;22.80;48.20;;;;;;5091103;28;20335;-74
2022/05/02 08:52:48;;;;;;;3.15;1.77;;;22.80;48.10;;;;;;5090693;28;20030;-74
2022/05/02 08:55:32;;;;;;;3.30;1.45;;;22.80;48.10;;;;;;5091088;28;20391;-73
2022/05/02 08:58:31;;;;;;;3.17;1.77;;;22.80;48.30;;;;;;5090849;28;20078;-74
2022/05/02 09:01:21;;;;;;;3.17;1.73;;;22.80;48.10;;;;;;5090736;28;20373;-74
2022/05/02 09:04:06;;;;;;;2.63;1.70;;;22.80;48.20;;;;;;5090365;28;20032;-74
2022/05/02 09:07:04;;;;;;;2.25;1.65;;;22.80;48.40;;;;;;5090833;28;20028;-74
2022/05/02 09:10:19;;;;;;;2.03;1.48;;;22.80;48.20;;;;;;5089290;28;20043;-74
2022/05/02 09:12:51;;;;;;;2.47;1.70;;;22.80;48.30;;;;;;5073633;28;20119;-74
2022/05/02 09:15:37;;;;;;;3.20;1.98;;;22.80;48.20;;;;;;5094515;28;20408;-74
2022/05/02 09:18:22;;;;;;;2.35;1.60;;;22.80;48.30;;;;;;5076077;28;20420;-74
2022/05/02 09:21:07;;;;;;;2.58;1.63;;;22.90;48.30;;;;;;5094251;28;20039;-73
2022/05/02 09:24:04;;;;;;;2.60;1.80;;;22.80;48.20;;;;;;5092524;28;20040;-74
2022/05/02 09:26:57;;;;;;;3.20;1.80;;;22.80;48.30;;;;;;5094023;28;20058;-74
2022/05/02 09:29:56;;;;;;;3.42;1.90;;;22.80;48.20;;;;;;5094129;28;20024;-74
2022/05/02 09:32:45;;;;;;;2.83;1.58;;;22.80;48.30;;;;;;5092661;28;20406;-73
2022/05/02 09:35:17;;;;;;;;;;;22.80;48.40;;;;;;5093319;28;20032;-74
2022/05/02 09:37:56;;;;;;;2.95;1.45;;;22.80;48.20;;;;;;5093976;28;19908;-73
2022/05/02 09:40:35;;;;;;;3.08;1.70;;;22.80;48.20;;;;;;5094092;28;20031;-73
2022/05/02 09:43:25;;;;;;;2.60;1.60;;;22.80;48.20;;;;;;5093421;28;20055;-74
2022/05/02 09:49:37;;;;;;;2.28;1.40;;;22.80;48.20;;;;;;5093742;28;20024;-73
2022/05/02 09:52:17;;;;;;;2.88;1.92;;;22.80;48.20;;;;;;5093711;28;20028;-73
2022/05/02 09:58:11;;;;;;;;;;;22.80;48.30;;;;;;5093903;28;20074;-74
2022/05/02 10:01:11;;;;;;;4.70;1.95;;;22.80;48.20;;;;;;5092260;28;20376;-74
2022/05/02 10:04:18;;;;;;;3.38;1.90;;;22.80;48.20;;;;;;5092829;28;20051;-74
2022/05/02 10:07:08;;;;;;;3.67;1.90;;;22.80;48.30;;;;;;5093358;28;20055;-74
2022/05/02 10:09:45;;;;;;;2.75;1.70;;;22.80;48.30;;;;;;5093278;28;20029;-73
2022/05/02 10:12:36;;;;;;;3.20;2.00;;;22.80;48.20;;;;;;5093036;28;20469;-74
2022/05/02 10:15:27;;;;;;;3.08;1.80;;;22.80;48.30;;;;;;5092908;28;20028;-74
2022/05/02 10:18:16;;;;;;;2.58;1.67;;;22.80;48.30;;;;;;5093265;28;20024;-74
2022/05/02 10:20:56;;;;;;;3.35;1.92;;;22.80;48.20;;;;;;5093153;28;20029;-74
2022/05/02 10:23:52;;;;;;;2.70;1.70;;;22.80;48.20;;;;;;5092754;28;20032;-74
2022/05/02 10:26:31;;;;;;;2.58;1.60;;;22.80;48.20;;;;;;5092866;28;20029;-74
2022/05/02 10:29:24;;;;;;;2.80;2.00;;;22.80;48.20;;;;;;5092905;28;20502;-74
2022/05/02 10:31:57;;;;;;;2.80;1.88;;;22.80;48.20;;;;;;5093027;28;20067;-74
2022/05/02 10:34:27;;;;;;;2.67;1.77;;;22.80;48.30;;;;;;5092401;28;20035;-74
2022/05/02 10:36:55;;;;;;;3.03;1.73;;;22.80;48.30;;;;;;5092467;28;20160;-74
2022/05/02 10:39:38;;;;;;;2.67;1.70;;;22.80;48.30;;;;;;5092828;28;20074;-74
2022/05/02 10:42:06;;;;;;;2.70;1.85;;;22.80;48.20;;;;;;5092691;28;20157;-74
2022/05/02 10:45:01;;;;;;;3.17;1.88;;;22.80;48.20;;;;;;5092261;28;20032;-74
2022/05/02 10:47:36;;;;;;;2.13;1.50;;;22.80;48.20;;;;;;5092316;28;20028;-74
2022/05/02 10:50:25;;;;;;;2.90;1.75;;;22.80;48.30;;;;;;5092683;28;20099;-74
2022/05/02 10:53:22;;;;;;;2.88;1.90;;;22.80;48.30;;;;;;5090876;28;20034;-72
2022/05/02 10:56:02;;;;;;;3.58;1.90;;;22.80;48.60;;;;;;5091135;28;20024;-72
2022/05/02 10:58:34;;;;;;;6.05;1.83;;;22.80;49.20;;;;;;5092010;28;20085;-74
2022/05/02 11:01:06;;;;;;;5.88;1.65;;;22.80;50.00;;;;;;5088545;28;20643;-74
2022/05/02 11:03:56;;;;;;;5.88;2.30;;;22.80;50.00;;;;;;5087778;28;20086;-74
2022/05/02 11:07:07;;;;;;;8.48;2.00;;;22.80;50.40;;;;;;5089513;28;20032;-73
2022/05/02 11:10:07;;;;;;;4.15;2.17;;;22.80;50.60;;;;;;5087182;28;20182;-75
2022/05/02 11:12:44;;;;;;;3.58;2.15;;;22.90;50.80;;;;;;5053307;28;20033;-76
2022/05/02 11:15:29;;;;;;;8.55;2.22;;;22.90;50.30;;;;;;5072063;28;20029;-75
2022/05/02 11:20:41;;;;;;;4.15;2.47;;;22.90;51.10;;;;;;5070793;28;20547;-74
2022/05/02 11:21:12;;;;;;;10.80;2.97;;;22.90;51.50;;;;;;5085393;28;20031;-75
2022/05/02 11:24:01;;;;;;;4.18;2.58;;;23.00;51.80;;;;;;5062618;28;20032;-75
2022/05/02 11:26:45;;;;;;;5.07;2.38;;;23.00;51.70;;;;;;5088944;28;20551;-75
2022/05/02 11:29:17;;;;;;;13.00;3.38;;;22.90;51.00;;;;;;5088186;28;20115;-75
2022/05/02 11:32:03;;;;;;;12.40;6.40;;;22.90;50.50;;;;;;5087179;28;20028;-75
2022/05/02 11:35:02;;;;;;;18.02;10.18;;;22.90;50.10;;;;;;5083342;28;20046;-76
2022/05/02 11:37:37;;;;;;;20.63;12.75;;;22.90;49.50;;;;;;5067246;28;20027;-76
2022/05/02 11:40:08;;;;;;;23.88;14.50;;;22.90;48.30;;;;;;5083149;28;20027;-75
2022/05/02 11:42:41;;;;;;;24.75;14.85;;;22.90;48.70;;;;;;5085866;28;20050;-75
2022/05/02 11:45:12;;;;;;;23.73;12.10;;;22.80;47.10;;;;;;5088338;28;20059;-75
2022/05/02 11:47:56;;;;;;;21.65;11.93;;;22.80;46.80;;;;;;5091007;28;20020;-75
2022/05/02 11:50:27;;;;;;;20.10;10.43;;;22.90;47.30;;;;;;5088816;28;20035;-75
2022/05/02 11:52:56;;;;;;;19.67;9.20;;;22.90;45.50;;;;;;5090073;28;20472;-75
2022/05/02 11:55:30;;;;;;;19.73;8.57;;;22.90;46.50;;;;;;5090929;28;20201;-74
2022/05/02 11:58:07;;;;;;;17.15;8.27;;;22.80;46.30;;;;;;5091604;28;20056;-74
2022/05/02 12:00:35;;;;;;;20.10;6.85;;;22.80;44.20;;;;;;5091398;28;20077;-75
2022/05/02 12:03:22;;;;;;;16.77;7.78;;;22.80;45.20;;;;;;5091364;28;20063;-74
2022/05/02 12:06:01;;;;;;;18.63;7.65;;;22.90;45.90;;;;;;5090152;28;20082;-72
2022/05/02 12:08:37;;;;;;;15.75;6.95;;;22.90;45.50;;;;;;5090238;28;20392;-72
2022/05/02 12:11:12;;;;;;;15.15;6.40;;;22.90;45.20;;;;;;5089944;28;20028;-71
2022/05/02 12:13:46;;;;;;;12.73;5.93;;;22.90;44.40;;;;;;5089622;28;20480;-72
2022/05/02 12:16:14;;;;;;;22.55;6.30;;;22.90;43.80;;;;;;5091279;28;20392;-72
2022/05/02 12:18:46;;;;;;;11.80;5.53;;;22.90;44.80;;;;;;5091246;28;20516;-71
2022/05/02 12:21:24;;;;;;;12.40;4.82;;;22.80;44.70;;;;;;5091059;28;20035;-76
2022/05/02 12:23:52;;;;;;;19.67;5.10;;;22.90;43.40;;;;;;5073066;28;20067;-76
2022/05/02 12:26:20;;;;;;;13.93;5.45;;;22.80;44.00;;;;;;5072918;28;20518;-76
2022/05/02 12:28:52;;;;;;;11.70;4.75;;;22.80;44.10;;;;;;5073289;28;20487;-76
2022/05/02 12:31:23;;;;;;;11.95;4.93;;;22.90;44.10;;;;;;5090782;28;20028;-76
2022/05/02 12:34:05;;;;;;;18.13;4.65;;;22.80;44.20;;;;;;5090814;28;20029;-76
2022/05/02 12:36:40;;;;;;;10.18;4.28;;;22.80;44.30;;;;;;5090895;28;20028;-76
2022/05/02 12:39:14;;;;;;;13.55;4.65;;;22.90;44.30;;;;;;5090984;28;20032;-76
2022/05/02 12:41:52;;;;;;;10.32;4.22;;;22.80;44.50;;;;;;5090869;28;20518;-76
2022/05/02 12:44:18;;;;;;;15.60;4.93;;;22.80;44.60;;;;;;5089485;28;20030;-76
2022/05/02 12:46:50;;;;;;;9.98;4.85;;;22.80;44.70;;;;;;5091720;28;20056;-76
2022/05/02 12:49:26;;;;;;;12.63;5.53;;;22.80;44.80;;;;;;5094989;28;20020;-76
2022/05/02 12:51:56;;;;;;;11.48;4.15;;;22.80;44.90;;;;;;5093584;28;20545;-76
2022/05/02 12:54:26;;;;;;;13.77;4.45;;;22.80;45.10;;;;;;5094399;28;20024;-77
2022/05/02 13:02:39;;;;;;;11.07;4.20;;;22.90;45.30;;;;;;5094243;28;20036;-77
2022/05/02 13:05:15;;;;;;;9.38;3.70;;;22.80;45.20;;;;;;5094347;28;20024;-76
2022/05/02 13:07:52;;;;;;;10.70;4.25;;;22.90;45.30;;;;;;5093284;28;20423;-77
2022/05/02 13:10:22;;;;;;;7.50;3.58;;;22.80;45.40;;;;;;5094537;28;20120;-76
2022/05/02 13:13:03;;;;;;;9.70;4.28;;;22.80;45.50;;;;;;5093896;28;20108;-76
2022/05/02 13:15:45;;;;;;;12.65;4.10;;;22.90;45.60;;;;;;5094873;28;20035;-77
2022/05/02 13:18:14;;;;;;;9.82;4.18;;;22.80;45.60;;;;;;5094576;28;20365;-76
2022/05/02 13:20:43;;;;;;;11.65;4.90;;;22.80;45.70;;;;;;5094530;28;20035;-76
2022/05/02 13:23:13;;;;;;;8.95;4.10;;;22.80;45.70;;;;;;5092835;28;20073;-76
2022/05/02 13:25:48;;;;;;;9.32;3.97;;;22.80;45.80;;;;;;5092826;28;20078;-76
2022/05/02 13:28:29;;;;;;;11.13;4.10;;;22.80;45.90;;;;;;5092848;28;20107;-76
2022/05/02 13:31:06;;;;;;;7.18;3.50;;;22.80;45.90;;;;;;5094137;28;20036;-76
2022/05/02 13:33:35;;;;;;;10.02;4.60;;;22.80;45.90;;;;;;5093643;28;20047;-76
2022/05/02 13:36:06;;;;;;;9.82;4.45;;;22.80;46.00;;;;;;5093881;28;20036;-76
2022/05/02 13:39:00;;;;;;;8.13;4.20;;;22.80;46.00;;;;;;5094409;28;20099;-76
2022/05/02 13:41:37;;;;;;;9.68;4.43;;;22.80;46.10;;;;;;5076025;28;20508;-77
2022/05/02 13:44:32;;;;;;;8.98;4.00;;;22.80;46.10;;;;;;5093614;28;20032;-76
2022/05/02 13:47:20;;;;;;;7.28;4.10;;;22.80;46.20;;;;;;5092918;28;20056;-76
2022/05/02 13:50:10;;;;;;;10.45;3.80;;;22.80;46.20;;;;;;5093677;28;20484;-77
2022/05/02 13:52:59;;;;;;;7.25;4.00;;;22.80;46.20;;;;;;5092020;28;20480;-77
2022/05/02 13:55:35;;;;;;;7.22;3.72;;;22.80;46.30;;;;;;5093614;28;20050;-77